createdAt,value
2022-09-14T00:01:24.229Z,75.87
2022-09-14T00:03:57.006Z,75.73
2022-09-14T00:06:23.727Z,75.66
2022-09-14T00:08:54.625Z,77.03
2022-09-14T00:11:23.882Z,76.85
2022-09-14T00:13:50.689Z,78.05
2022-09-14T00:16:23.089Z,78.53
2022-09-14T00:18:54.626Z,77.98
2022-09-14T00:21:22.046Z,77.84
2022-09-14T00:23:48.435Z,77.88
2022-09-14T00:26:16.996Z,79.09
2022-09-14T00:28:46.353Z,79.65
2022-09-14T00:31:13.135Z,79.67
2022-09-14T00:33:42.238Z,79.85
2022-09-14T00:36:11.991Z,79.78
2022-09-14T00:38:39.683Z,79.89
2022-09-14T00:41:08.799Z,80.03
2022-09-14T00:43:53.199Z,80.35
2022-09-14T00:46:19.532Z,81.02
2022-09-14T00:48:46.224Z,80.46
2022-09-14T00:51:13.889Z,80.27
2022-09-14T00:53:40.351Z,79.94
2022-09-14T00:56:07.304Z,79.99
2022-09-14T00:58:34.012Z,80.21
2022-09-14T01:01:00.480Z,80.30
2022-09-14T01:03:27.001Z,80.23
2022-09-14T01:06:08.417Z,80.94
2022-09-14T01:08:53.750Z,80.70
2022-09-14T01:11:54.463Z,80.94
2022-09-14T01:14:53.785Z,80.95
2022-09-14T01:17:37.229Z,81.94
2022-09-14T01:20:20.868Z,81.85
2022-09-14T01:26:45.286Z,83.04
2022-09-14T01:29:30.046Z,82.63
2022-09-14T01:32:04.179Z,83.41
2022-09-14T01:34:36.771Z,82.77
2022-09-14T01:37:13.366Z,83.56
2022-09-14T01:39:48.839Z,84.02
2022-09-14T01:42:17.469Z,84.11
2022-09-14T01:44:47.240Z,83.75
2022-09-14T01:47:23.213Z,84.15
2022-09-14T01:49:52.841Z,84.33
2022-09-14T01:52:27.028Z,84.16
2022-09-14T01:55:11.963Z,84.40
2022-09-14T01:57:41.094Z,84.18
2022-09-14T02:00:09.299Z,83.74
2022-09-14T02:02:40.741Z,84.17
2022-09-14T02:05:09.277Z,83.82
2022-09-14T02:07:36.472Z,83.76
2022-09-14T02:10:05.729Z,83.88
2022-09-14T02:12:32.089Z,84.12
2022-09-14T02:14:58.830Z,84.38
2022-09-14T02:17:25.220Z,84.48
2022-09-14T02:20:00.102Z,84.36
2022-09-14T02:22:27.289Z,84.21
2022-09-14T02:24:53.830Z,84.63
2022-09-14T02:27:20.510Z,84.81
2022-09-14T02:29:46.969Z,85.10
2022-09-14T02:32:27.714Z,85.37
2022-09-14T02:35:00.146Z,84.63
2022-09-14T02:37:45.280Z,85.01
2022-09-14T02:40:17.977Z,84.89
2022-09-14T02:42:53.208Z,84.99
2022-09-14T02:45:32.368Z,85.26
2022-09-14T02:48:05.090Z,86.31
2022-09-14T02:50:50.230Z,85.79
2022-09-14T02:53:20.068Z,86.05
2022-09-14T02:55:49.180Z,85.97
2022-09-14T02:58:15.970Z,86.22
2022-09-14T03:00:43.985Z,86.53
2022-09-14T03:03:11.238Z,87.00
2022-09-14T03:05:37.682Z,87.23
2022-09-14T03:08:04.860Z,87.51
2022-09-14T03:10:31.267Z,87.85
2022-09-14T03:12:58.095Z,87.38
2022-09-14T03:15:24.582Z,87.80
2022-09-14T03:17:51.734Z,88.13
2022-09-14T03:20:19.199Z,88.46
2022-09-14T03:22:45.877Z,88.69
2022-09-14T03:25:12.153Z,88.46
2022-09-14T03:27:38.743Z,88.33
2022-09-14T03:30:05.870Z,88.98
2022-09-14T03:32:32.677Z,88.91
2022-09-14T03:34:59.095Z,89.03
2022-09-14T03:37:25.896Z,89.02
2022-09-14T03:39:52.202Z,89.07
2022-09-14T03:42:18.905Z,89.00
2022-09-14T03:44:45.198Z,88.46
2022-09-14T03:47:11.560Z,89.61
2022-09-14T03:49:38.080Z,89.27
2022-09-14T03:52:04.467Z,89.25
2022-09-14T03:54:30.969Z,89.71
2022-09-14T03:56:57.682Z,89.18
2022-09-14T03:59:23.940Z,89.17
2022-09-14T04:01:50.254Z,89.30
2022-09-14T04:04:16.696Z,89.50
2022-09-14T04:06:43.369Z,89.41
2022-09-14T04:09:09.644Z,89.28
2022-09-14T04:11:35.902Z,89.42
2022-09-14T04:14:03.121Z,89.45
2022-09-14T04:16:29.547Z,90.15
2022-09-14T04:18:56.102Z,90.24
2022-09-14T04:21:24.068Z,90.37
2022-09-14T04:24:14.029Z,90.38
2022-09-14T04:26:40.701Z,90.57
2022-09-14T04:29:07.364Z,90.40
2022-09-14T04:31:33.917Z,90.68
2022-09-14T04:34:00.249Z,89.82
2022-09-14T04:36:27.747Z,90.16
2022-09-14T04:38:54.965Z,90.49
2022-09-14T04:41:22.091Z,90.86
2022-09-14T04:43:49.595Z,91.49
2022-09-14T04:46:17.724Z,91.60
2022-09-14T04:48:44.104Z,91.09
2022-09-14T04:51:14.315Z,91.75
2022-09-14T04:53:40.695Z,91.47
2022-09-14T04:56:08.114Z,91.35
2022-09-14T04:58:35.838Z,91.56
2022-09-14T05:01:02.806Z,90.79
2022-09-14T05:03:29.318Z,90.97
2022-09-14T05:05:55.667Z,91.76
2022-09-14T05:08:22.487Z,91.44
2022-09-14T05:10:48.741Z,91.23
2022-09-14T05:13:14.999Z,91.42
2022-09-14T05:15:42.009Z,91.39
2022-09-14T05:18:08.281Z,91.42
2022-09-14T05:20:34.662Z,91.47
2022-09-14T05:23:01.009Z,91.68
2022-09-14T05:25:27.604Z,92.38
2022-09-14T05:27:53.829Z,92.06
2022-09-14T05:30:20.192Z,92.08
2022-09-14T05:32:46.471Z,92.22
2022-09-14T05:35:12.818Z,92.51
2022-09-14T05:37:39.243Z,92.93
2022-09-14T05:40:06.012Z,92.97
2022-09-14T05:42:32.566Z,92.89
2022-09-14T05:44:58.815Z,93.15
2022-09-14T05:47:25.161Z,93.25
2022-09-14T05:49:51.539Z,93.37
2022-09-14T05:52:18.005Z,92.85
2022-09-14T05:54:44.647Z,93.42
2022-09-14T05:57:11.312Z,93.27
2022-09-14T05:59:37.662Z,92.95
2022-09-14T06:02:04.089Z,93.23
2022-09-14T06:04:30.648Z,93.12
2022-09-14T06:07:17.463Z,93.07
2022-09-14T06:09:43.309Z,93.61
2022-09-14T06:12:09.572Z,93.12
2022-09-14T06:14:36.020Z,93.22
2022-09-14T06:17:02.383Z,93.12
2022-09-14T06:19:28.656Z,93.10
2022-09-14T06:21:54.998Z,92.71
2022-09-14T06:24:21.449Z,93.46
2022-09-14T06:26:47.720Z,93.35
2022-09-14T06:29:14.420Z,93.38
2022-09-14T06:31:40.962Z,93.50
2022-09-14T06:34:07.388Z,93.39
2022-09-14T06:36:33.636Z,93.63
2022-09-14T06:39:00.255Z,94.18
2022-09-14T06:41:27.977Z,93.72
2022-09-14T06:43:55.479Z,93.66
2022-09-14T06:46:23.513Z,93.80
2022-09-14T06:48:49.834Z,93.80
2022-09-14T06:51:17.399Z,93.98
2022-09-14T06:53:44.186Z,93.83
2022-09-14T06:56:10.714Z,93.82
2022-09-14T06:58:37.298Z,93.99
2022-09-14T07:01:04.283Z,94.35
2022-09-14T07:03:31.372Z,94.25
2022-09-14T07:06:12.410Z,94.07
2022-09-14T07:08:39.164Z,93.86
2022-09-14T07:11:06.661Z,94.54
2022-09-14T07:13:33.016Z,94.57
2022-09-14T07:15:59.474Z,94.31
2022-09-14T07:18:26.639Z,93.76
2022-09-14T07:20:53.090Z,94.28
2022-09-14T07:23:19.314Z,94.25
2022-09-14T07:25:45.746Z,94.51
2022-09-14T07:28:12.291Z,94.38
2022-09-14T07:30:39.105Z,93.90
2022-09-14T07:33:05.868Z,93.85
2022-09-14T07:35:32.400Z,93.57
2022-09-14T07:37:58.863Z,93.22
2022-09-14T07:40:25.348Z,93.40
2022-09-14T07:42:56.802Z,93.18
2022-09-14T07:45:23.902Z,93.66
2022-09-14T07:47:50.194Z,93.62
2022-09-14T07:50:16.702Z,93.68
2022-09-14T07:52:43.136Z,93.66
2022-09-14T07:55:09.572Z,93.64
2022-09-14T07:57:55.227Z,93.69
2022-09-14T08:00:22.222Z,93.77
2022-09-14T08:02:55.313Z,94.10
2022-09-14T08:05:22.364Z,94.41
2022-09-14T08:07:53.275Z,93.78
2022-09-14T08:10:19.530Z,94.00
2022-09-14T08:12:49.782Z,93.96
2022-09-14T08:15:16.182Z,93.82
2022-09-14T08:17:42.490Z,93.85
2022-09-14T08:20:09.058Z,94.35
2022-09-14T08:22:35.337Z,93.70
2022-09-14T08:25:01.557Z,93.38
2022-09-14T08:27:28.288Z,93.64
2022-09-14T08:29:54.758Z,94.30
2022-09-14T08:32:21.101Z,94.87
2022-09-14T08:34:47.338Z,94.46
2022-09-14T08:37:13.807Z,94.82
2022-09-14T08:39:40.033Z,94.28
2022-09-14T08:42:11.259Z,94.17
2022-09-14T08:44:42.242Z,94.23
2022-09-14T08:47:21.779Z,94.27
2022-09-14T08:50:07.382Z,94.09
2022-09-14T08:52:45.071Z,94.50
2022-09-14T08:55:29.534Z,94.51
2022-09-14T08:58:17.578Z,94.14
2022-09-14T09:00:46.720Z,94.16
2022-09-14T09:03:34.602Z,93.77
2022-09-14T09:06:06.645Z,93.49
2022-09-14T09:08:48.605Z,94.04
2022-09-14T09:11:18.631Z,93.48
2022-09-14T09:13:46.848Z,92.90
2022-09-14T09:16:16.788Z,92.61
2022-09-14T09:18:46.252Z,91.64
2022-09-14T09:21:12.487Z,91.43
2022-09-14T09:23:40.072Z,91.51
2022-09-14T09:26:13.747Z,91.84
2022-09-14T09:28:45.001Z,91.65
2022-09-14T09:31:14.893Z,91.71
2022-09-14T09:33:41.966Z,91.37
2022-09-14T09:36:12.202Z,91.10
2022-09-14T09:38:38.604Z,91.81
2022-09-14T09:41:04.926Z,91.57
2022-09-14T09:43:48.878Z,91.69
2022-09-14T09:46:15.988Z,91.36
2022-09-14T09:48:43.779Z,91.63
2022-09-14T09:51:12.367Z,91.62
2022-09-14T09:53:45.629Z,91.15
2022-09-14T09:56:17.238Z,91.05
2022-09-14T09:58:43.577Z,90.69
2022-09-14T10:01:26.547Z,91.12
2022-09-14T10:04:06.984Z,91.37
2022-09-14T10:06:41.290Z,91.22
2022-09-14T10:09:12.503Z,91.63
2022-09-14T10:11:38.817Z,91.92
2022-09-14T10:14:05.960Z,91.64
2022-09-14T10:16:41.428Z,91.92
2022-09-14T10:19:22.039Z,92.04
2022-09-14T10:22:05.899Z,91.63
2022-09-14T10:24:34.347Z,90.77
2022-09-14T10:27:00.730Z,91.44
2022-09-14T10:29:38.060Z,91.08
2022-09-14T10:32:10.819Z,90.81
2022-09-14T10:34:37.358Z,90.37
2022-09-14T10:37:13.985Z,91.07
2022-09-14T10:39:46.108Z,91.11
2022-09-14T10:42:17.770Z,90.83
2022-09-14T10:44:55.320Z,91.24
2022-09-14T10:47:24.797Z,91.17
2022-09-14T10:50:00.393Z,90.78
2022-09-14T10:52:26.701Z,91.00
2022-09-14T10:54:54.312Z,90.53
2022-09-14T10:57:28.648Z,91.02
2022-09-14T11:00:02.063Z,90.25
2022-09-14T11:02:34.641Z,90.62
2022-09-14T11:05:03.672Z,90.77
2022-09-14T11:07:39.374Z,90.38
2022-09-14T11:10:16.723Z,90.89
2022-09-14T11:12:50.753Z,90.54
2022-09-14T11:15:20.233Z,90.78
2022-09-14T11:18:04.839Z,90.81
2022-09-14T11:20:43.283Z,90.48
2022-09-14T11:23:28.481Z,90.66
2022-09-14T11:25:57.853Z,90.57
2022-09-14T11:28:30.243Z,89.71
2022-09-14T11:31:04.414Z,89.82
2022-09-14T11:33:40.029Z,89.50
2022-09-14T11:36:18.523Z,89.53
2022-09-14T11:39:07.797Z,89.44
2022-09-14T11:41:39.275Z,89.63
2022-09-14T11:44:21.549Z,89.90
2022-09-14T11:47:00.923Z,90.05
2022-09-14T11:49:30.362Z,89.82
2022-09-14T11:52:07.951Z,89.84
2022-09-14T11:54:34.658Z,90.61
2022-09-14T11:57:02.860Z,90.60
2022-09-14T11:59:41.617Z,90.74
2022-09-14T12:02:22.931Z,90.92
2022-09-14T12:05:04.829Z,90.76
2022-09-14T12:07:40.300Z,90.94
2022-09-14T12:10:15.810Z,91.38
2022-09-14T12:12:46.390Z,90.47
2022-09-14T12:15:25.200Z,91.03
2022-09-14T12:17:52.574Z,90.70
2022-09-14T12:20:27.699Z,91.57
2022-09-14T12:23:04.541Z,90.94
2022-09-14T12:25:31.117Z,90.58
2022-09-14T12:27:57.828Z,90.38
2022-09-14T12:30:35.937Z,90.67
2022-09-14T12:33:24.841Z,91.46
2022-09-14T12:35:51.460Z,91.56
2022-09-14T12:38:29.941Z,91.90
2022-09-14T12:41:15.565Z,91.97
2022-09-14T12:43:42.165Z,91.98
2022-09-14T12:46:10.309Z,91.99
2022-09-14T12:48:48.596Z,92.03
2022-09-14T12:51:27.680Z,92.44
2022-09-14T12:54:14.264Z,92.66
2022-09-14T12:56:41.883Z,92.78
2022-09-14T12:59:27.058Z,93.34
2022-09-14T13:01:56.403Z,93.05
2022-09-14T13:04:28.604Z,93.53
2022-09-14T13:06:58.646Z,93.06
2022-09-14T13:09:26.033Z,93.45
2022-09-14T13:12:00.485Z,92.79
2022-09-14T13:14:35.637Z,92.70
2022-09-14T13:17:02.365Z,93.02
2022-09-14T13:19:30.185Z,93.08
2022-09-14T13:21:57.892Z,92.79
2022-09-14T13:24:29.737Z,92.78
2022-09-14T13:26:57.777Z,93.11
2022-09-14T13:29:24.250Z,93.28
2022-09-14T13:31:50.935Z,93.13
2022-09-14T13:34:20.584Z,93.62
2022-09-14T13:36:46.988Z,93.71
2022-09-14T13:39:33.903Z,93.60
2022-09-14T13:42:00.775Z,93.40
2022-09-14T13:44:33.544Z,93.25
2022-09-14T13:47:02.327Z,93.08
2022-09-14T13:49:28.868Z,92.85
2022-09-14T13:52:13.759Z,92.42
2022-09-14T13:54:40.041Z,93.32
2022-09-14T13:57:20.795Z,93.20
2022-09-14T14:00:05.859Z,92.52
2022-09-14T14:02:34.526Z,92.94
2022-09-14T14:05:01.316Z,92.41
2022-09-14T14:07:36.722Z,92.79
2022-09-14T14:10:03.355Z,92.64
2022-09-14T14:12:34.838Z,91.59
2022-09-14T14:15:01.359Z,92.05
2022-09-14T14:17:27.827Z,91.98
2022-09-14T14:19:55.719Z,92.43
2022-09-14T14:22:26.286Z,92.60
2022-09-14T14:27:43.916Z,91.13
2022-09-14T14:30:14.626Z,91.03
2022-09-14T14:32:40.994Z,89.49
2022-09-14T14:35:18.051Z,89.39
2022-09-14T14:37:44.891Z,89.85
2022-09-14T14:40:15.238Z,90.00
2022-09-14T14:42:42.284Z,90.11
2022-09-14T14:45:15.789Z,90.66
2022-09-14T14:47:42.181Z,89.96
2022-09-14T14:50:15.089Z,89.82
2022-09-14T14:52:41.354Z,90.45
2022-09-14T14:55:08.030Z,90.56
2022-09-14T14:57:34.564Z,90.42
2022-09-14T15:00:01.400Z,90.78
2022-09-14T15:02:27.690Z,90.64
2022-09-14T15:04:53.958Z,91.09
2022-09-14T15:07:20.320Z,91.31
2022-09-14T15:09:46.846Z,91.77
2022-09-14T15:12:13.204Z,91.63
2022-09-14T15:14:39.561Z,91.42
2022-09-14T15:17:05.794Z,92.19
2022-09-14T15:19:32.149Z,91.67
2022-09-14T15:22:01.273Z,91.44
2022-09-14T15:24:28.402Z,92.05
2022-09-14T15:26:55.131Z,92.30
2022-09-14T15:29:21.391Z,93.28
2022-09-14T15:31:47.826Z,92.46
2022-09-14T15:34:15.554Z,92.51
2022-09-14T15:36:43.065Z,92.73
2022-09-14T15:39:12.338Z,92.84
2022-09-14T15:41:38.725Z,92.38
2022-09-14T15:44:05.366Z,92.07
2022-09-14T15:46:31.785Z,92.29
2022-09-14T15:48:58.674Z,93.04
2022-09-14T15:51:24.950Z,92.71
2022-09-14T15:53:51.204Z,91.33
2022-09-14T15:56:17.717Z,91.60
2022-09-14T15:58:48.013Z,92.00
2022-09-14T16:01:15.743Z,92.44
2022-09-14T16:03:42.020Z,92.33
2022-09-14T16:06:14.838Z,92.46
2022-09-14T16:08:41.305Z,92.05
2022-09-14T16:11:08.446Z,92.54
2022-09-14T16:13:35.117Z,92.16
2022-09-14T16:16:20.410Z,92.37
2022-09-14T16:18:47.231Z,92.35
2022-09-14T16:21:15.349Z,92.44
2022-09-14T16:23:45.957Z,92.27
2022-09-14T16:26:16.738Z,92.16
2022-09-14T16:28:44.102Z,92.16
2022-09-14T16:31:11.670Z,92.24
2022-09-14T16:33:39.177Z,91.83
2022-09-14T16:36:06.933Z,92.29
2022-09-14T16:38:33.625Z,92.76
2022-09-14T16:41:00.462Z,92.15
2022-09-14T16:43:26.922Z,92.14
2022-09-14T16:46:02.409Z,92.03
2022-09-14T16:48:28.782Z,92.06
2022-09-14T16:50:55.455Z,92.24
2022-09-14T16:53:21.753Z,92.08
2022-09-14T16:55:48.062Z,91.07
2022-09-14T16:58:14.381Z,91.29
2022-09-14T17:00:44.099Z,92.15
2022-09-14T17:03:10.710Z,92.35
2022-09-14T17:05:36.986Z,92.76
2022-09-14T17:08:03.323Z,92.88
2022-09-14T17:10:32.982Z,92.96
2022-09-14T17:12:59.212Z,92.57
2022-09-14T17:15:25.597Z,92.50
2022-09-14T17:17:51.837Z,92.84
2022-09-14T17:20:18.256Z,92.84
2022-09-14T17:22:44.530Z,92.35
2022-09-14T17:25:14.877Z,92.74
2022-09-14T17:27:43.172Z,92.57
2022-09-14T17:30:09.832Z,92.16
2022-09-14T17:32:36.086Z,92.14
2022-09-14T17:35:04.024Z,92.27
2022-09-14T17:37:30.367Z,92.26
2022-09-14T17:39:56.768Z,92.19
2022-09-14T17:42:23.073Z,92.19
2022-09-14T17:44:49.369Z,91.91
2022-09-14T17:47:15.705Z,92.02
2022-09-14T17:49:42.032Z,92.11
2022-09-14T17:52:08.409Z,91.00
2022-09-14T17:54:34.694Z,90.99
2022-09-14T17:57:00.939Z,91.81
2022-09-14T17:59:27.202Z,91.86
2022-09-14T18:01:53.507Z,91.41
2022-09-14T18:04:19.748Z,91.54
2022-09-14T18:06:46.964Z,91.95
2022-09-14T18:09:14.501Z,92.05
2022-09-14T18:11:40.824Z,92.03
2022-09-14T18:14:07.113Z,92.58
2022-09-14T18:16:33.585Z,92.60
2022-09-14T18:18:59.922Z,92.16
2022-09-14T18:21:26.524Z,92.24
2022-09-14T18:23:53.961Z,92.41
2022-09-14T18:26:20.663Z,92.56
2022-09-14T18:28:46.998Z,93.02
2022-09-14T18:31:14.555Z,93.21
2022-09-14T18:33:46.273Z,92.71
2022-09-14T18:36:12.517Z,92.59
2022-09-14T18:38:38.796Z,92.52
2022-09-14T18:41:06.098Z,92.57
2022-09-14T18:43:32.398Z,91.75
2022-09-14T18:45:58.886Z,91.03
2022-09-14T18:48:25.593Z,91.20
2022-09-14T18:50:51.908Z,90.34
2022-09-14T18:53:18.375Z,90.56
2022-09-14T18:55:44.646Z,90.33
2022-09-14T18:58:11.102Z,90.85
2022-09-14T19:00:41.196Z,91.52
2022-09-14T19:03:07.571Z,91.67
2022-09-14T19:05:38.542Z,91.95
2022-09-14T19:08:07.753Z,92.16
2022-09-14T19:10:35.827Z,92.21
2022-09-14T19:13:02.215Z,92.96
2022-09-14T19:15:32.055Z,92.67
2022-09-14T19:17:59.076Z,92.81
2022-09-14T19:20:28.886Z,93.01
2022-09-14T19:23:04.838Z,92.67
2022-09-14T19:25:31.104Z,92.87
2022-09-14T19:27:57.394Z,92.58
2022-09-14T19:30:23.685Z,92.57
2022-09-14T19:32:50.038Z,92.69
2022-09-14T19:35:16.459Z,92.64
2022-09-14T19:37:42.987Z,92.79
2022-09-14T19:40:09.637Z,93.11
2022-09-14T19:42:36.013Z,93.01
2022-09-14T19:45:02.308Z,92.96
2022-09-14T19:47:28.611Z,93.07
2022-09-14T19:49:55.160Z,93.15
2022-09-14T19:52:21.471Z,93.43
2022-09-14T19:54:47.772Z,93.65
2022-09-14T19:57:14.077Z,93.66
2022-09-14T19:59:40.628Z,93.71
2022-09-14T20:02:08.800Z,93.45
2022-09-14T20:04:35.093Z,93.49
2022-09-14T20:07:01.425Z,93.37
2022-09-14T20:09:27.835Z,93.26
2022-09-14T20:11:54.126Z,93.03
2022-09-14T20:14:21.724Z,92.63
2022-09-14T20:16:49.945Z,92.70
2022-09-14T20:19:17.480Z,92.79
2022-09-14T20:21:44.801Z,93.38
2022-09-14T20:24:16.239Z,93.58
2022-09-14T20:26:44.685Z,93.61
2022-09-14T20:29:10.943Z,93.60
2022-09-14T20:31:37.424Z,93.63
2022-09-14T20:34:03.885Z,93.36
2022-09-14T20:36:30.414Z,93.42
2022-09-14T20:38:57.768Z,93.19
2022-09-14T20:41:25.223Z,92.94
2022-09-14T20:43:51.545Z,93.23
2022-09-14T20:46:20.272Z,93.26
2022-09-14T20:48:47.379Z,93.13
2022-09-14T20:51:17.225Z,93.19
2022-09-14T20:53:46.315Z,92.95
2022-09-14T20:56:13.985Z,92.62
2022-09-14T20:58:40.691Z,93.31
2022-09-14T21:01:09.237Z,92.99
2022-09-14T21:03:36.625Z,93.30
2022-09-14T21:06:04.507Z,92.93
2022-09-14T21:08:31.617Z,92.50
2022-09-14T21:10:58.016Z,92.82
2022-09-14T21:13:24.316Z,92.71
2022-09-14T21:15:50.651Z,92.50
2022-09-14T21:18:20.633Z,92.58
2022-09-14T21:20:47.067Z,92.53
2022-09-14T21:23:13.314Z,92.86
2022-09-14T21:25:39.537Z,92.89
2022-09-14T21:28:05.771Z,92.63
2022-09-14T21:30:32.176Z,92.67
2022-09-14T21:32:58.411Z,92.81
2022-09-14T21:35:24.780Z,93.05
2022-09-14T21:37:51.551Z,92.76
2022-09-14T21:40:18.591Z,93.22
2022-09-14T21:42:45.040Z,93.27
2022-09-14T21:45:11.987Z,93.14
2022-09-14T21:47:38.276Z,93.11
2022-09-14T21:50:05.194Z,93.21
2022-09-14T21:52:31.552Z,93.26
2022-09-14T21:54:57.779Z,92.68
2022-09-14T21:57:24.463Z,92.87
2022-09-14T21:59:50.726Z,93.02
2022-09-14T22:02:17.241Z,93.02
2022-09-14T22:04:43.553Z,92.97
2022-09-14T22:07:09.853Z,92.88
2022-09-14T22:09:36.079Z,92.85
2022-09-14T22:12:02.572Z,92.68
2022-09-14T22:14:29.365Z,92.94
2022-09-14T22:16:55.954Z,92.73
2022-09-14T22:19:24.229Z,92.98
2022-09-14T22:21:51.057Z,92.86
2022-09-14T22:24:19.303Z,92.51
2022-09-14T22:26:45.987Z,92.40
2022-09-14T22:29:12.767Z,93.02
2022-09-14T22:31:39.955Z,92.87
2022-09-14T22:34:06.545Z,92.10
2022-09-14T22:36:32.788Z,91.41
2022-09-14T22:38:59.982Z,91.95
2022-09-14T22:41:27.216Z,92.29
2022-09-14T22:43:53.758Z,91.83
2022-09-14T22:46:21.069Z,91.62
2022-09-14T22:48:47.806Z,91.80
2022-09-14T22:51:15.616Z,91.83
2022-09-14T22:53:42.152Z,91.29
2022-09-14T22:56:11.451Z,91.81
2022-09-14T22:58:38.013Z,91.78
2022-09-14T23:01:05.288Z,92.11
2022-09-14T23:03:31.520Z,91.80
2022-09-14T23:05:57.828Z,91.96
2022-09-14T23:08:24.074Z,90.80
2022-09-14T23:10:50.514Z,91.18
2022-09-14T23:13:16.850Z,91.70
2022-09-14T23:15:43.271Z,91.86
2022-09-14T23:18:10.129Z,91.88
2022-09-14T23:20:40.752Z,91.80
2022-09-14T23:23:07.180Z,91.70
2022-09-14T23:25:34.533Z,91.70
2022-09-14T23:28:01.732Z,92.26
2022-09-14T23:30:28.104Z,92.06
2022-09-14T23:32:54.700Z,92.06
2022-09-14T23:35:20.908Z,92.37
2022-09-14T23:37:47.120Z,90.89
2022-09-14T23:40:13.778Z,91.11
2022-09-14T23:42:40.335Z,91.25
2022-09-14T23:45:06.944Z,91.55
2022-09-14T23:47:33.465Z,91.49
2022-09-14T23:49:59.693Z,90.25
2022-09-14T23:52:26.214Z,90.27
2022-09-14T23:54:53.507Z,90.75
2022-09-14T23:57:19.802Z,90.03
2022-09-14T23:59:46.083Z,90.12
